createdAt,value
2018-03-15T00:00:54.780Z,99.90
2018-03-15T00:03:28.729Z,99.90
2018-03-15T00:05:56.425Z,99.90
2018-03-15T00:08:24.037Z,99.90
2018-03-15T00:10:51.865Z,99.90
2018-03-15T00:13:20.273Z,99.90
2018-03-15T00:15:48.692Z,99.90
2018-03-15T00:18:16.355Z,99.90
2018-03-15T00:20:44.017Z,99.90
2018-03-15T00:23:11.678Z,99.90
2018-03-15T00:25:39.294Z,99.90
2018-03-15T00:28:08.273Z,99.90
2018-03-15T00:30:35.942Z,99.90
2018-03-15T00:33:03.552Z,99.90
2018-03-15T00:35:31.212Z,99.90
2018-03-15T00:37:59.424Z,99.90
2018-03-15T00:40:27.082Z,99.90
2018-03-15T00:42:54.738Z,99.90
2018-03-15T00:45:22.364Z,99.90
2018-03-15T00:47:50.653Z,99.90
2018-03-15T00:50:18.317Z,99.90
2018-03-15T00:52:45.959Z,99.90
2018-03-15T00:55:13.623Z,99.90
2018-03-15T00:57:41.241Z,99.90
2018-03-15T01:00:09.981Z,99.90
2018-03-15T01:02:37.660Z,99.90
2018-03-15T01:05:05.300Z,99.90
2018-03-15T01:07:32.936Z,99.90
2018-03-15T01:10:00.612Z,99.90
2018-03-15T01:12:28.277Z,99.90
2018-03-15T01:14:55.892Z,99.90
2018-03-15T01:17:23.544Z,99.90
2018-03-15T01:19:51.217Z,99.90
2018-03-15T01:22:18.874Z,99.90
2018-03-15T01:24:46.675Z,99.90
2018-03-15T01:27:14.289Z,99.90
2018-03-15T01:29:41.948Z,99.90
2018-03-15T01:32:09.563Z,99.90
2018-03-15T01:34:37.212Z,99.90
2018-03-15T01:37:04.877Z,99.90
2018-03-15T01:39:32.497Z,99.90
2018-03-15T01:42:00.107Z,99.90
2018-03-15T01:44:27.762Z,99.90
2018-03-15T01:46:55.401Z,99.90
2018-03-15T01:49:23.737Z,99.90
2018-03-15T01:51:52.375Z,99.90
2018-03-15T01:54:19.984Z,99.90
2018-03-15T01:56:47.644Z,99.90
2018-03-15T01:59:15.300Z,99.90
2018-03-15T02:01:43.717Z,99.90
2018-03-15T02:04:11.332Z,99.90
2018-03-15T02:06:38.993Z,99.90
2018-03-15T02:09:06.618Z,99.90
2018-03-15T02:11:34.273Z,99.90
2018-03-15T02:14:01.934Z,99.90
2018-03-15T02:16:29.615Z,99.90
2018-03-15T02:18:57.264Z,99.90
2018-03-15T02:21:24.877Z,99.90
2018-03-15T02:23:52.525Z,99.90
2018-03-15T02:26:20.901Z,99.90
2018-03-15T02:28:49.333Z,99.90
2018-03-15T02:31:17.102Z,99.90
2018-03-15T02:33:44.711Z,99.90
2018-03-15T02:36:12.361Z,99.90
2018-03-15T02:38:40.789Z,99.90
2018-03-15T02:41:08.444Z,99.90
2018-03-15T02:43:36.061Z,99.90
2018-03-15T02:46:03.725Z,99.90
2018-03-15T02:48:32.097Z,99.90
2018-03-15T02:51:00.524Z,99.90
2018-03-15T02:53:28.136Z,99.90
2018-03-15T02:55:55.749Z,99.90
2018-03-15T02:58:23.812Z,99.90
2018-03-15T03:00:51.580Z,99.90
2018-03-15T03:03:19.230Z,99.90
2018-03-15T03:05:46.837Z,99.90
2018-03-15T03:08:15.242Z,99.90
2018-03-15T03:10:42.904Z,99.90
2018-03-15T03:13:10.557Z,99.90
2018-03-15T03:15:38.165Z,99.90
2018-03-15T03:18:06.612Z,99.90
2018-03-15T03:20:34.594Z,99.90
2018-03-15T03:23:02.200Z,99.90
2018-03-15T03:25:30.612Z,99.90
2018-03-15T03:27:58.217Z,99.90
2018-03-15T03:30:25.871Z,99.90
2018-03-15T03:32:53.529Z,99.90
2018-03-15T03:35:21.184Z,99.90
2018-03-15T03:37:48.842Z,99.90
2018-03-15T03:40:16.453Z,99.90
2018-03-15T03:42:44.105Z,99.90
2018-03-15T03:45:12.535Z,99.90
2018-03-15T03:47:40.195Z,99.90
2018-03-15T03:50:07.846Z,99.90
2018-03-15T03:52:35.499Z,99.90
2018-03-15T03:55:03.126Z,99.90
2018-03-15T03:57:30.772Z,99.90
2018-03-15T03:59:59.192Z,99.90
2018-03-15T04:02:26.862Z,99.90
2018-03-15T04:04:54.513Z,99.90
2018-03-15T04:07:22.161Z,99.90
2018-03-15T04:09:49.829Z,99.90
2018-03-15T04:12:17.480Z,99.90
2018-03-15T04:14:45.127Z,99.90
2018-03-15T04:17:14.467Z,99.90
2018-03-15T04:19:42.443Z,99.90
2018-03-15T04:22:10.841Z,99.90
2018-03-15T04:24:38.449Z,99.90
2018-03-15T04:27:06.113Z,99.90
2018-03-15T04:29:33.772Z,99.90
2018-03-15T04:32:01.384Z,99.90
2018-03-15T04:34:29.064Z,99.90
2018-03-15T04:36:57.442Z,99.90
2018-03-15T04:39:25.105Z,99.90
2018-03-15T04:41:53.520Z,99.90
2018-03-15T04:44:21.128Z,99.90
2018-03-15T04:46:48.779Z,99.90
2018-03-15T04:49:16.392Z,99.90
2018-03-15T04:51:44.048Z,99.90
2018-03-15T04:54:11.740Z,99.90
2018-03-15T04:56:39.396Z,99.90
2018-03-15T04:59:07.383Z,99.90
2018-03-15T05:01:35.041Z,99.90
2018-03-15T05:04:02.648Z,99.90
2018-03-15T05:06:30.305Z,99.90
2018-03-15T05:08:57.972Z,99.90
2018-03-15T05:11:25.630Z,99.90
2018-03-15T05:13:53.447Z,99.90
2018-03-15T05:16:21.093Z,99.90
2018-03-15T05:18:48.969Z,99.90
2018-03-15T05:21:16.620Z,99.90
2018-03-15T05:23:44.241Z,99.80
2018-03-15T05:26:12.056Z,99.60
2018-03-15T05:28:39.720Z,99.80
2018-03-15T05:31:07.373Z,99.90
2018-03-15T05:33:35.034Z,99.80
2018-03-15T05:36:02.686Z,99.30
2018-03-15T05:38:30.745Z,99.50
2018-03-15T05:40:58.590Z,99.50
2018-03-15T05:43:26.205Z,99.60
2018-03-15T05:45:53.830Z,99.00
2018-03-15T05:48:21.497Z,98.90
2018-03-15T05:50:49.301Z,99.40
2018-03-15T05:53:17.738Z,99.70
2018-03-15T05:55:45.354Z,99.70
2018-03-15T05:58:14.834Z,99.70
2018-03-15T06:00:42.568Z,99.70
2018-03-15T06:03:10.227Z,99.50
2018-03-15T06:05:37.837Z,99.60
2018-03-15T06:08:05.485Z,99.90
2018-03-15T06:10:34.228Z,99.80
2018-03-15T06:13:01.892Z,99.90
2018-03-15T06:15:29.502Z,99.90
2018-03-15T06:17:57.503Z,99.90
2018-03-15T06:20:25.133Z,99.90
2018-03-15T06:22:52.796Z,99.70
2018-03-15T06:25:20.441Z,99.30
2018-03-15T06:27:48.820Z,99.90
2018-03-15T06:30:17.237Z,99.90
2018-03-15T06:32:44.844Z,99.80
2018-03-15T06:35:12.497Z,99.90
2018-03-15T06:37:41.687Z,99.90
2018-03-15T06:40:09.302Z,99.90
2018-03-15T06:42:36.970Z,99.90
2018-03-15T06:45:04.592Z,99.50
2018-03-15T06:47:32.264Z,99.60
2018-03-15T06:49:59.968Z,99.90
2018-03-15T06:52:27.630Z,99.90
2018-03-15T06:54:55.278Z,99.80
2018-03-15T06:57:23.253Z,99.80
2018-03-15T06:59:50.936Z,99.90
2018-03-15T07:02:19.888Z,99.10
2018-03-15T07:04:48.846Z,99.40
2018-03-15T07:07:16.465Z,99.40
2018-03-15T07:09:44.124Z,99.70
2018-03-15T07:12:12.429Z,99.70
2018-03-15T07:14:40.089Z,99.90
2018-03-15T07:17:08.477Z,99.90
2018-03-15T07:19:36.137Z,99.90
2018-03-15T07:22:05.967Z,99.90
2018-03-15T07:24:33.631Z,99.90
2018-03-15T07:27:02.069Z,99.90
2018-03-15T07:29:29.737Z,99.90
2018-03-15T07:31:57.469Z,99.90
2018-03-15T07:34:27.244Z,99.90
2018-03-15T07:36:54.985Z,99.90
2018-03-15T07:39:22.717Z,99.90
2018-03-15T07:41:50.314Z,99.90
2018-03-15T07:44:18.698Z,99.90
2018-03-15T07:46:46.356Z,99.90
2018-03-15T07:49:13.968Z,99.90
2018-03-15T07:51:41.635Z,99.90
2018-03-15T07:54:10.867Z,99.90
2018-03-15T07:56:38.693Z,99.90
2018-03-15T07:59:06.461Z,99.70
2018-03-15T08:01:34.226Z,99.70
2018-03-15T08:04:02.463Z,99.90
2018-03-15T08:06:30.142Z,99.90
2018-03-15T08:08:57.749Z,99.80
2018-03-15T08:11:25.396Z,99.90
2018-03-15T08:13:53.794Z,99.90
2018-03-15T08:16:21.502Z,99.90
2018-03-15T08:18:49.173Z,99.90
2018-03-15T08:21:16.782Z,99.90
2018-03-15T08:23:44.698Z,99.90
2018-03-15T08:26:12.321Z,99.90
2018-03-15T08:28:40.008Z,99.90
2018-03-15T08:31:07.622Z,99.90
2018-03-15T08:33:35.280Z,99.90
2018-03-15T08:36:02.901Z,99.90
2018-03-15T08:38:30.570Z,99.90
2018-03-15T08:40:58.190Z,99.90
2018-03-15T08:43:25.805Z,99.90
2018-03-15T08:45:53.502Z,99.90
2018-03-15T08:48:21.126Z,99.90
2018-03-15T08:50:49.558Z,99.90
2018-03-15T08:53:17.246Z,99.90
2018-03-15T08:55:44.913Z,99.90
2018-03-15T08:58:12.586Z,99.90
2018-03-15T09:00:40.261Z,99.90
2018-03-15T09:03:08.660Z,99.90
2018-03-15T09:05:36.321Z,99.90
2018-03-15T09:08:03.976Z,99.90
2018-03-15T09:10:31.650Z,99.90
2018-03-15T09:12:59.539Z,99.90
2018-03-15T09:15:27.157Z,99.90
2018-03-15T09:17:54.821Z,99.90
2018-03-15T09:20:22.488Z,99.90
2018-03-15T09:22:50.466Z,99.90
2018-03-15T09:25:18.090Z,99.90
2018-03-15T09:27:45.709Z,99.90
2018-03-15T09:30:13.370Z,99.90
2018-03-15T09:32:41.014Z,99.90
2018-03-15T09:35:08.705Z,99.90
2018-03-15T09:37:36.373Z,99.90
2018-03-15T09:40:04.769Z,99.90
2018-03-15T09:42:32.583Z,99.90
2018-03-15T09:45:00.238Z,99.90
2018-03-15T09:47:27.921Z,99.90
2018-03-15T09:49:55.584Z,99.90
2018-03-15T09:52:23.230Z,99.90
2018-03-15T09:54:50.907Z,99.90
2018-03-15T09:57:19.206Z,99.60
2018-03-15T09:59:46.887Z,99.90
2018-03-15T10:02:14.589Z,99.70
2018-03-15T10:04:42.224Z,99.40
2018-03-15T10:07:09.906Z,99.90
2018-03-15T10:09:37.611Z,99.90
2018-03-15T10:12:05.263Z,99.90
2018-03-15T10:14:32.951Z,99.90
2018-03-15T10:17:00.573Z,99.90
2018-03-15T10:19:29.030Z,99.90
2018-03-15T10:21:56.669Z,99.90
2018-03-15T10:24:24.337Z,99.90
2018-03-15T10:26:52.017Z,99.90
2018-03-15T10:29:20.673Z,99.20
2018-03-15T10:31:48.301Z,99.70
2018-03-15T10:34:16.218Z,99.90
2018-03-15T10:36:43.908Z,99.60
2018-03-15T10:39:11.608Z,99.60
2018-03-15T10:41:39.248Z,98.90
2018-03-15T10:44:06.913Z,98.80
2018-03-15T10:46:34.597Z,98.30
2018-03-15T10:49:02.253Z,97.60
2018-03-15T10:51:29.889Z,97.90
2018-03-15T10:53:57.576Z,98.50
2018-03-15T10:56:25.387Z,98.20
2018-03-15T10:58:54.767Z,98.70
2018-03-15T11:01:22.491Z,98.70
2018-03-15T11:03:50.200Z,98.30
2018-03-15T11:06:24.367Z,98.40
2018-03-15T11:08:58.305Z,98.40
2018-03-15T11:11:25.988Z,98.20
2018-03-15T11:13:55.145Z,97.10
2018-03-15T11:16:23.016Z,97.40
2018-03-15T11:18:50.672Z,97.70
2018-03-15T11:21:18.348Z,98.10
2018-03-15T11:23:46.295Z,97.40
2018-03-15T11:26:13.861Z,98.10
2018-03-15T11:28:41.505Z,97.80
2018-03-15T11:31:09.201Z,97.70
2018-03-15T11:33:38.214Z,97.30
2018-03-15T11:36:06.627Z,97.50
2018-03-15T11:38:34.333Z,96.80
2018-03-15T11:41:03.270Z,97.60
2018-03-15T11:43:30.997Z,97.60
2018-03-15T11:45:59.478Z,96.20
2018-03-15T11:48:27.933Z,96.70
2018-03-15T11:50:56.180Z,96.50
2018-03-15T11:53:25.430Z,96.30
2018-03-15T11:55:53.853Z,95.90
2018-03-15T11:58:21.485Z,95.90
2018-03-15T12:00:49.402Z,94.60
2018-03-15T12:03:17.279Z,94.50
2018-03-15T12:05:45.645Z,95.10
2018-03-15T12:08:13.341Z,94.10
2018-03-15T12:10:40.982Z,94.30
2018-03-15T12:13:08.629Z,94.40
2018-03-15T12:15:36.324Z,94.50
2018-03-15T12:18:03.973Z,93.90
2018-03-15T12:20:31.631Z,94.30
2018-03-15T12:22:59.300Z,94.00
2018-03-15T12:25:27.051Z,93.00
2018-03-15T12:27:54.673Z,93.10
2018-03-15T12:30:22.336Z,93.40
2018-03-15T12:32:49.958Z,93.70
2018-03-15T12:35:18.205Z,93.60
2018-03-15T12:37:46.078Z,93.80
2018-03-15T12:40:13.746Z,93.40
2018-03-15T12:42:41.387Z,93.50
2018-03-15T12:45:09.372Z,93.40
2018-03-15T12:47:36.993Z,93.40
2018-03-15T12:50:04.675Z,94.00
2018-03-15T12:52:32.346Z,94.00
2018-03-15T12:54:59.973Z,93.00
2018-03-15T12:57:27.685Z,93.70
2018-03-15T12:59:55.288Z,93.60
2018-03-15T13:02:22.955Z,93.70
2018-03-15T13:04:50.585Z,93.80
2018-03-15T13:07:19.814Z,94.10
2018-03-15T13:09:47.430Z,94.30
2018-03-15T13:12:15.111Z,93.70
2018-03-15T13:14:43.495Z,93.90
2018-03-15T13:17:11.221Z,93.80
2018-03-15T13:19:38.886Z,93.90
2018-03-15T13:22:06.815Z,93.60
2018-03-15T13:24:34.442Z,93.70
2018-03-15T13:27:02.061Z,93.70
2018-03-15T13:29:30.040Z,93.40
2018-03-15T13:31:57.785Z,93.60
2018-03-15T13:34:25.479Z,93.10
2018-03-15T13:36:53.109Z,93.20
2018-03-15T13:39:21.009Z,93.80
2018-03-15T13:41:48.668Z,93.40
2018-03-15T13:44:16.347Z,92.50
2018-03-15T13:46:44.056Z,91.90
2018-03-15T13:49:11.737Z,92.00
2018-03-15T13:51:39.367Z,92.60
2018-03-15T13:54:07.435Z,92.60
2018-03-15T13:56:35.661Z,93.00
2018-03-15T13:59:04.153Z,92.00
2018-03-15T14:01:31.872Z,91.90
2018-03-15T14:03:59.484Z,91.30
2018-03-15T14:06:27.142Z,90.90
2018-03-15T14:08:54.820Z,91.40
2018-03-15T14:11:22.464Z,91.40
2018-03-15T14:13:50.141Z,91.00
2018-03-15T14:16:18.200Z,91.10
2018-03-15T14:18:45.821Z,90.90
2018-03-15T14:21:13.473Z,90.40
2018-03-15T14:23:41.860Z,90.60
2018-03-15T14:26:10.255Z,90.50
2018-03-15T14:28:37.929Z,90.50
2018-03-15T14:31:05.593Z,90.10
2018-03-15T14:33:33.253Z,90.40
2018-03-15T14:36:00.873Z,89.30
2018-03-15T14:38:29.321Z,88.90
2018-03-15T14:40:56.971Z,87.90
2018-03-15T14:43:24.598Z,88.90
2018-03-15T14:45:52.274Z,86.70
2018-03-15T14:48:19.941Z,87.20
2018-03-15T14:50:47.576Z,87.90
2018-03-15T14:53:15.274Z,85.50
2018-03-15T14:55:42.893Z,85.40
2018-03-15T14:58:10.713Z,84.70
2018-03-15T15:00:38.334Z,84.80
2018-03-15T15:03:05.999Z,84.30
2018-03-15T15:05:33.630Z,82.80
2018-03-15T15:08:01.912Z,82.40
2018-03-15T15:10:29.572Z,80.50
2018-03-15T15:12:57.953Z,81.10
2018-03-15T15:15:25.639Z,81.10
2018-03-15T15:17:53.261Z,81.20
2018-03-15T15:20:20.928Z,81.30
2018-03-15T15:22:49.361Z,82.20
2018-03-15T15:25:17.045Z,81.70
2018-03-15T15:27:44.666Z,82.00
2018-03-15T15:30:12.553Z,81.80
2018-03-15T15:32:40.209Z,81.60
2018-03-15T15:35:07.869Z,81.60
2018-03-15T15:37:35.528Z,80.50
2018-03-15T15:40:03.298Z,81.10
2018-03-15T15:42:30.964Z,81.30
2018-03-15T15:45:00.088Z,81.20
2018-03-15T15:47:28.476Z,80.30
2018-03-15T15:49:56.129Z,80.20
2018-03-15T15:52:23.756Z,80.50
2018-03-15T15:54:52.181Z,81.70
2018-03-15T15:57:19.810Z,81.60
2018-03-15T15:59:48.471Z,81.20
2018-03-15T16:02:16.137Z,81.60
2018-03-15T16:04:44.347Z,80.30
2018-03-15T16:07:12.014Z,80.70
2018-03-15T16:09:39.637Z,81.60
2018-03-15T16:12:08.077Z,82.20
2018-03-15T16:14:35.717Z,82.20
2018-03-15T16:17:03.372Z,82.10
2018-03-15T16:19:31.263Z,81.00
2018-03-15T16:21:58.930Z,81.40
2018-03-15T16:24:26.593Z,81.50
2018-03-15T16:26:54.295Z,80.90
2018-03-15T16:29:22.736Z,81.40
2018-03-15T16:31:50.349Z,80.40
2018-03-15T16:34:18.018Z,81.60
2018-03-15T16:36:45.687Z,80.50
2018-03-15T16:39:13.311Z,81.40
2018-03-15T16:41:40.981Z,80.90
2018-03-15T16:44:09.352Z,81.60
2018-03-15T16:46:37.768Z,80.50
2018-03-15T16:49:05.963Z,79.90
2018-03-15T16:51:34.149Z,81.10
2018-03-15T16:54:02.473Z,81.20
2018-03-15T16:56:30.126Z,81.40
2018-03-15T16:58:57.789Z,80.40
2018-03-15T17:01:26.178Z,80.50
2018-03-15T17:03:53.832Z,80.20
2018-03-15T17:06:21.452Z,80.00
2018-03-15T17:08:49.109Z,80.50
2018-03-15T17:11:16.739Z,80.20
2018-03-15T17:13:44.405Z,79.70
2018-03-15T17:16:12.066Z,79.00
2018-03-15T17:18:39.717Z,79.90
2018-03-15T17:21:07.370Z,79.20
2018-03-15T17:23:34.981Z,77.80
2018-03-15T17:26:02.635Z,79.10
2018-03-15T17:28:30.373Z,78.80
2018-03-15T17:30:58.048Z,78.80
2018-03-15T17:33:26.278Z,78.90
2018-03-15T17:35:53.885Z,78.30
2018-03-15T17:38:21.534Z,78.20
2018-03-15T17:40:49.141Z,79.10
2018-03-15T17:43:17.616Z,77.70
2018-03-15T17:45:45.224Z,77.60
2018-03-15T17:48:12.830Z,77.70
2018-03-15T17:50:41.049Z,77.30
2018-03-15T17:53:08.662Z,77.20
2018-03-15T17:55:36.379Z,76.60
2018-03-15T17:58:04.065Z,77.60
2018-03-15T18:00:31.699Z,75.70
2018-03-15T18:02:59.360Z,75.60
2018-03-15T18:05:27.341Z,75.80
2018-03-15T18:07:54.967Z,75.90
2018-03-15T18:10:22.626Z,75.50
2018-03-15T18:12:50.292Z,75.80
2018-03-15T18:15:18.096Z,74.80
2018-03-15T18:17:45.993Z,76.00
2018-03-15T18:20:14.593Z,75.30
2018-03-15T18:22:42.249Z,75.10
2018-03-15T18:25:09.852Z,73.90
2018-03-15T18:27:37.710Z,74.70
2018-03-15T18:30:05.362Z,74.70
2018-03-15T18:32:32.974Z,75.70
2018-03-15T18:35:00.623Z,74.80
2018-03-15T18:37:28.565Z,75.10
2018-03-15T18:39:56.225Z,76.30
2018-03-15T18:42:23.832Z,75.00
2018-03-15T18:44:51.488Z,74.80
2018-03-15T18:47:19.093Z,75.60
2018-03-15T18:49:46.750Z,73.20
2018-03-15T18:52:14.406Z,74.40
2018-03-15T18:54:43.125Z,75.40
2018-03-15T18:57:10.733Z,73.10
2018-03-15T18:59:38.381Z,74.60
2018-03-15T19:02:06.024Z,74.60
2018-03-15T19:04:34.453Z,74.90
2018-03-15T19:07:02.064Z,75.90
2018-03-15T19:09:30.488Z,77.10
2018-03-15T19:11:58.137Z,77.00
2018-03-15T19:14:25.741Z,76.50
2018-03-15T19:16:54.163Z,77.90
2018-03-15T19:19:21.821Z,77.60
2018-03-15T19:21:49.433Z,77.10
2018-03-15T19:24:17.230Z,77.10
2018-03-15T19:26:44.841Z,77.50
2018-03-15T19:29:12.507Z,78.10
2018-03-15T19:31:40.112Z,77.60
2018-03-15T19:34:07.723Z,78.30
2018-03-15T19:36:35.388Z,78.20
2018-03-15T19:39:03.032Z,77.20
2018-03-15T19:41:30.685Z,77.70
2018-03-15T19:43:58.285Z,77.90
2018-03-15T19:46:25.937Z,77.90
2018-03-15T19:48:53.550Z,77.40
2018-03-15T19:51:21.204Z,77.70
2018-03-15T19:53:48.812Z,77.00
2018-03-15T19:56:16.844Z,77.90
2018-03-15T19:58:44.459Z,77.80
2018-03-15T20:01:12.873Z,77.90
2018-03-15T20:03:40.553Z,77.80
2018-03-15T20:06:08.157Z,77.80
2018-03-15T20:08:35.821Z,77.50
2018-03-15T20:11:04.308Z,77.10
2018-03-15T20:13:31.922Z,76.90
2018-03-15T20:15:59.571Z,77.30
2018-03-15T20:18:27.186Z,77.60
2018-03-15T20:20:55.556Z,76.90
2018-03-15T20:23:29.597Z,77.60
2018-03-15T20:25:57.205Z,76.60
2018-03-15T20:28:30.400Z,75.50
2018-03-15T20:30:58.009Z,76.80
2018-03-15T20:33:31.746Z,77.60
2018-03-15T20:35:59.337Z,77.90
2018-03-15T20:38:27.750Z,76.40
2018-03-15T20:41:00.917Z,77.00
2018-03-15T20:43:28.570Z,77.60
2018-03-15T20:48:57.853Z,77.70
2018-03-15T20:51:25.457Z,77.90
2018-03-15T20:53:53.109Z,77.90
2018-03-15T20:56:20.757Z,77.30
2018-03-15T20:58:49.133Z,79.30
2018-03-15T21:01:16.781Z,78.80
2018-03-15T21:03:44.397Z,77.90
2018-03-15T21:06:12.056Z,78.40
2018-03-15T21:08:39.656Z,79.10
2018-03-15T21:11:08.041Z,79.00
2018-03-15T21:13:36.488Z,79.10
2018-03-15T21:16:04.096Z,78.70
2018-03-15T21:18:32.510Z,78.50
2018-03-15T21:21:00.117Z,78.10
2018-03-15T21:23:27.961Z,79.30
2018-03-15T21:25:55.585Z,77.90
2018-03-15T21:28:23.198Z,79.40
2018-03-15T21:30:50.944Z,79.40
2018-03-15T21:33:18.548Z,78.60
2018-03-15T21:35:46.251Z,78.90
2018-03-15T21:38:14.963Z,78.80
2018-03-15T21:40:43.404Z,80.20
2018-03-15T21:43:11.058Z,80.30
2018-03-15T21:45:38.669Z,79.20
2018-03-15T21:48:07.305Z,79.40
2018-03-15T21:50:35.642Z,79.70
2018-03-15T21:53:03.301Z,80.30
2018-03-15T21:55:31.668Z,80.00
2018-03-15T21:57:59.319Z,79.10
2018-03-15T22:00:26.968Z,79.90
2018-03-15T22:02:54.632Z,80.00
2018-03-15T22:05:22.280Z,80.00
2018-03-15T22:07:49.892Z,80.60
2018-03-15T22:10:17.547Z,80.10
2018-03-15T22:12:45.921Z,80.80
2018-03-15T22:15:14.337Z,81.10
2018-03-15T22:17:41.984Z,79.60
2018-03-15T22:20:09.589Z,80.50
2018-03-15T22:22:37.241Z,80.50
2018-03-15T22:25:04.900Z,80.90
2018-03-15T22:27:32.513Z,80.80
2018-03-15T22:30:00.789Z,81.70
2018-03-15T22:32:28.446Z,80.80
2018-03-15T22:34:56.137Z,80.40
2018-03-15T22:37:23.735Z,81.00
2018-03-15T22:39:51.398Z,80.40
2018-03-15T22:42:19.019Z,79.50
2018-03-15T22:44:46.865Z,81.10
2018-03-15T22:47:14.513Z,80.50
2018-03-15T22:49:42.142Z,81.30
2018-03-15T22:52:10.450Z,81.40
2018-03-15T22:54:38.053Z,80.70
2018-03-15T22:57:05.706Z,80.70
2018-03-15T22:59:33.373Z,80.60
2018-03-15T23:02:00.981Z,80.60
2018-03-15T23:04:29.576Z,80.30
2018-03-15T23:06:57.224Z,80.60
2018-03-15T23:09:24.893Z,80.00
2018-03-15T23:11:52.501Z,79.70
2018-03-15T23:14:20.148Z,79.10
2018-03-15T23:16:47.799Z,79.90
2018-03-15T23:19:15.427Z,79.20
2018-03-15T23:21:43.515Z,80.10
2018-03-15T23:24:12.104Z,80.40
2018-03-15T23:26:39.738Z,80.60
2018-03-15T23:29:07.350Z,79.80
2018-03-15T23:31:35.008Z,79.90
2018-03-15T23:34:02.617Z,79.80
2018-03-15T23:36:30.228Z,79.90
2018-03-15T23:38:57.876Z,79.00
2018-03-15T23:41:25.530Z,79.60
2018-03-15T23:43:53.199Z,79.20
2018-03-15T23:46:20.805Z,79.50
2018-03-15T23:48:48.412Z,79.70
2018-03-15T23:51:16.048Z,78.60
2018-03-15T23:53:43.666Z,79.10
2018-03-15T23:56:11.269Z,78.60
2018-03-15T23:58:38.930Z,79.00
